Time;durP1;ratioP1;P1;durP2;ratioP2;P2;SDS_P1;SDS_P2;PMS_P1;PMS_P2;Temp;Humidity;BMP_temperature;BMP_pressure;BME280_temperature;BME280_humidity;BME280_pressure;Samples;Min_cycle;Max_cycle;Signal;HPM_P1;HPM_P2
2022/10/27 00:01:32;;;;;;;40.63;5.72;;;;;;;;;;5057911;28;20275;-60
2022/10/27 00:03:58;;;;;;;37.67;5.45;;;;;;;;;;5064811;28;20188;-60
2022/10/27 00:06:24;;;;;;;42.72;5.00;;;15.00;99.90;;;;;;5051650;28;20196;-60
2022/10/27 00:08:51;;;;;;;47.97;6.50;;;14.80;99.90;;;;;;5051812;28;20601;-60
2022/10/27 00:11:17;;;;;;;36.42;4.97;;;;;;;;;;5052022;28;20177;-60
2022/10/27 00:13:42;;;;;;;40.70;4.95;;;14.40;99.90;;;;;;5052191;28;20213;-59
2022/10/27 00:16:14;;;;;;;40.30;4.82;;;15.10;99.90;;;;;;5055469;28;20711;-60
2022/10/27 00:18:41;;;;;;;40.33;5.57;;;;;;;;;;5051683;28;20172;-60
2022/10/27 00:21:11;;;;;;;45.40;6.43;;;15.00;99.90;;;;;;5051793;28;20185;-60
2022/10/27 00:23:38;;;;;;;35.92;5.40;;;14.80;99.90;;;;;;5053697;28;20211;-60
2022/10/27 00:26:05;;;;;;;53.10;5.90;;;16.40;99.90;;;;;;5058318;28;20273;-58
2022/10/27 00:28:32;;;;;;;41.42;5.45;;;14.80;99.90;;;;;;5051449;28;20188;-58
2022/10/27 00:31:03;;;;;;;55.05;6.07;;;14.80;99.90;;;;;;5064572;28;20180;-58
2022/10/27 00:33:29;;;;;;;39.35;5.20;;;;;;;;;;5050159;28;20582;-58
2022/10/27 00:35:55;;;;;;;38.45;4.95;;;14.70;99.90;;;;;;5059048;28;20267;-57
2022/10/27 00:38:21;;;;;;;42.72;5.88;;;14.70;99.90;;;;;;5065597;28;20180;-57
2022/10/27 00:40:47;;;;;;;50.47;5.78;;;;;;;;;;5064710;28;20698;-57
2022/10/27 00:43:30;;;;;;;39.33;4.82;;;14.80;99.90;;;;;;5070901;28;20194;-58
2022/10/27 00:46:16;;;;;;;43.80;5.03;;;14.70;99.90;;;;;;5051041;28;20218;-57
2022/10/27 00:48:41;;;;;;;35.78;5.05;;;14.80;99.90;;;;;;5051658;28;20211;-58
2022/10/27 00:51:11;;;;;;;38.13;5.63;;;14.80;99.90;;;;;;5051593;28;20583;-57
2022/10/27 00:53:37;;;;;;;37.33;5.30;;;;;;;;;;5051198;28;20192;-58
2022/10/27 00:56:03;;;;;;;41.33;4.82;;;;;;;;;;5054427;28;20180;-58
2022/10/27 00:58:29;;;;;;;38.67;4.90;;;14.80;99.90;;;;;;5057174;28;20183;-58
2022/10/27 01:00:55;;;;;;;28.50;5.05;;;14.60;99.90;;;;;;5061687;28;20205;-57
2022/10/27 01:03:22;;;;;;;28.98;4.47;;;14.80;99.90;;;;;;5070874;28;20168;-57
2022/10/27 01:05:50;;;;;;;35.30;5.03;;;14.90;99.90;;;;;;5058298;28;20241;-57
2022/10/27 01:08:16;;;;;;;31.67;5.07;;;14.70;99.90;;;;;;5050972;28;20177;-57
2022/10/27 01:10:42;;;;;;;31.23;4.70;;;;;;;;;;5051033;28;20177;-57
2022/10/27 01:13:08;;;;;;;41.65;4.82;;;14.70;99.90;;;;;;5051112;28;20177;-57
2022/10/27 01:15:45;;;;;;;43.25;5.18;;;14.60;99.90;;;;;;5054429;28;20177;-57
2022/10/27 01:18:11;;;;;;;33.22;4.45;;;;;;;;;;5051423;28;20177;-57
2022/10/27 01:20:37;;;;;;;23.88;4.80;;;;;;;;;;5050568;28;20705;-58
2022/10/27 01:23:06;;;;;;;31.42;4.80;;;;;;;;;;5050646;28;20187;-58
2022/10/27 01:25:50;;;;;;;33.28;5.05;;;14.90;99.90;;;;;;5054648;28;20219;-58
2022/10/27 01:29:04;;;;;;;44.53;5.70;;;14.70;99.90;;;;;;5051138;28;20184;-59
2022/10/27 01:31:33;;;;;;;30.90;4.50;;;14.50;99.90;;;;;;5065732;28;20173;-58
2022/10/27 01:34:08;;;;;;;42.80;4.57;;;14.90;99.90;;;;;;5069637;28;20216;-59
2022/10/27 01:36:40;;;;;;;38.00;4.65;;;14.60;99.90;;;;;;5050687;28;20176;-58
2022/10/27 01:39:11;;;;;;;32.55;4.53;;;14.70;99.90;;;;;;5054910;28;20177;-59
2022/10/27 01:41:47;;;;;;;42.35;4.40;;;15.00;99.90;;;;;;5050391;28;20249;-58
2022/10/27 01:44:28;;;;;;;39.75;5.53;;;14.60;99.90;;;;;;5050595;28;20644;-58
2022/10/27 01:46:56;;;;;;;34.20;4.70;;;14.70;99.90;;;;;;5054098;28;20176;-59
2022/10/27 01:49:22;;;;;;;35.08;5.25;;;;;;;;;;5053491;28;20189;-58
2022/10/27 01:51:49;;;;;;;42.55;4.82;;;14.70;99.90;;;;;;5050883;28;20666;-58
2022/10/27 01:54:17;;;;;;;29.75;4.75;;;15.70;99.90;;;;;;5050523;28;20208;-58
2022/10/27 01:57:22;;;;;;;35.97;4.68;;;14.70;99.90;;;;;;5056491;28;20635;-58
2022/10/27 01:59:53;;;;;;;28.17;4.68;;;14.70;99.90;;;;;;5050521;28;20185;-59
2022/10/27 02:03:01;;;;;;;32.35;4.72;;;14.40;99.90;;;;;;5058264;28;20177;-58
2022/10/27 02:05:42;;;;;;;41.10;4.90;;;14.80;99.90;;;;;;5054111;28;20196;-58
2022/10/27 02:08:36;;;;;;;36.75;4.95;;;14.80;99.90;;;;;;5072409;28;20191;-58
2022/10/27 02:11:05;;;;;;;37.85;4.88;;;14.90;99.90;;;;;;5057265;28;20199;-58
2022/10/27 02:13:34;;;;;;;38.65;4.85;;;14.70;99.90;;;;;;5054719;28;20208;-57
2022/10/27 02:16:04;;;;;;;36.83;4.68;;;14.70;99.90;;;;;;5058115;28;20192;-57
2022/10/27 02:19:13;;;;;;;29.77;4.75;;;14.90;99.90;;;;;;5058743;28;20260;-57
2022/10/27 02:21:41;;;;;;;31.13;4.75;;;;;;;;;;5057516;28;20764;-58
2022/10/27 02:24:07;;;;;;;31.30;3.97;;;;;;;;;;5049071;28;20185;-58
2022/10/27 02:26:40;;;;;;;32.20;4.45;;;14.80;99.90;;;;;;5067030;28;20180;-58
2022/10/27 02:29:28;;;;;;;37.10;4.70;;;14.80;99.90;;;;;;5069992;28;20704;-58
2022/10/27 02:31:58;;;;;;;34.63;4.68;;;14.80;99.90;;;;;;5070078;28;20214;-58
2022/10/27 02:34:25;;;;;;;33.47;3.95;;;;;;;;;;5053834;28;20209;-58
2022/10/27 02:36:51;;;;;;;31.67;4.43;;;14.80;99.90;;;;;;5053274;28;20177;-58
2022/10/27 02:39:16;;;;;;;28.33;3.92;;;14.40;99.90;;;;;;5053387;28;20219;-59
2022/10/27 02:41:42;;;;;;;37.22;4.90;;;;;;;;;;5053091;28;20225;-59
2022/10/27 02:44:08;;;;;;;27.58;4.03;;;14.90;99.90;;;;;;5053378;28;20257;-58
2022/10/27 02:46:34;;;;;;;36.30;4.47;;;;;;;;;;5054493;28;20622;-59
2022/10/27 02:49:00;;;;;;;34.20;4.47;;;;;;;;;;5053818;28;20174;-60
2022/10/27 02:51:26;;;;;;;33.80;4.40;;;;;;;;;;5079477;28;20177;-60
2022/10/27 02:53:52;;;;;;;29.42;4.18;;;;;;;;;;5053126;28;20232;-60
2022/10/27 02:56:18;;;;;;;29.30;4.75;;;14.80;99.90;;;;;;5053560;28;20185;-59
2022/10/27 02:58:44;;;;;;;20.23;3.13;;;;;;;;;;5053450;28;20188;-60
2022/10/27 03:01:10;;;;;;;28.17;4.27;;;;;;;;;;5063183;28;20180;-60
2022/10/27 03:03:36;;;;;;;25.52;3.28;;;;;;;;;;5058045;28;20196;-60
2022/10/27 03:06:02;;;;;;;21.95;3.25;;;;;;;;;;5057168;28;20177;-60
2022/10/27 03:08:28;;;;;;;29.50;2.80;;;;;;;;;;5067350;28;20213;-60
2022/10/27 03:10:54;;;;;;;23.45;3.10;;;15.30;99.90;;;;;;5062762;28;20264;-60
2022/10/27 03:13:20;;;;;;;23.75;2.80;;;;;;;;;;5053358;28;20566;-60
2022/10/27 03:15:46;;;;;;;23.98;2.90;;;;;;;;;;5056618;28;20188;-61
2022/10/27 03:18:12;;;;;;;17.30;3.15;;;15.70;99.90;;;;;;5053257;28;20200;-60
2022/10/27 03:20:38;;;;;;;19.33;2.97;;;;;;;;;;5067771;28;20192;-60
2022/10/27 03:23:04;;;;;;;20.80;2.53;;;;;;;;;;5066123;28;20173;-60
2022/10/27 03:25:30;;;;;;;17.30;2.47;;;;;;;;;;5070606;28;20256;-59
2022/10/27 03:27:56;;;;;;;20.10;2.58;;;;;;;;;;5057732;28;20186;-59
2022/10/27 03:30:22;;;;;;;22.25;2.33;;;15.80;99.90;;;;;;5052552;28;20173;-59
2022/10/27 03:32:49;;;;;;;10.52;2.25;;;15.50;99.90;;;;;;5061449;28;20744;-59
2022/10/27 03:35:17;;;;;;;12.88;2.20;;;15.80;99.90;;;;;;5063227;28;20247;-59
2022/10/27 03:37:43;;;;;;;17.17;2.20;;;15.30;99.90;;;;;;5052940;28;20184;-59
2022/10/27 03:40:10;;;;;;;15.77;2.42;;;15.80;99.90;;;;;;5052084;28;20221;-59
2022/10/27 03:42:41;;;;;;;21.25;2.65;;;15.60;99.90;;;;;;5052492;28;20177;-59
2022/10/27 03:45:08;;;;;;;15.88;2.63;;;15.90;99.90;;;;;;5052640;28;20247;-58
2022/10/27 03:47:34;;;;;;;21.73;2.70;;;;;;;;;;5052882;28;20647;-58
2022/10/27 03:49:59;;;;;;;20.27;2.65;;;15.70;99.90;;;;;;5054316;28;20173;-58
2022/10/27 03:52:25;;;;;;;17.23;2.47;;;;;;;;;;5072197;28;20187;-58
2022/10/27 03:54:51;;;;;;;14.45;2.55;;;;;;;;;;5068643;28;20220;-58
2022/10/27 03:57:17;;;;;;;17.27;2.10;;;15.70;99.90;;;;;;5060529;28;20200;-58
2022/10/27 03:59:43;;;;;;;14.23;2.40;;;;;;;;;;5052457;28;20216;-58
2022/10/27 04:02:09;;;;;;;17.60;2.10;;;15.70;99.90;;;;;;5052135;28;20173;-58
2022/10/27 04:04:35;;;;;;;17.75;2.25;;;15.50;99.90;;;;;;5052495;28;20173;-59
2022/10/27 04:07:00;;;;;;;14.70;2.45;;;15.50;99.90;;;;;;5052265;28;20564;-59
2022/10/27 04:09:26;;;;;;;17.38;2.05;;;15.30;99.90;;;;;;5056019;28;20667;-59
2022/10/27 04:11:52;;;;;;;17.55;2.33;;;;;;;;;;5067300;28;20164;-58
2022/10/27 04:14:18;;;;;;;17.60;2.53;;;;;;;;;;5062544;28;20521;-59
2022/10/27 04:16:50;;;;;;;12.88;2.00;;;;;;;;;;5069032;28;20173;-59
2022/10/27 04:19:16;;;;;;;14.93;2.25;;;;;;;;;;5066591;28;20181;-59
2022/10/27 04:21:42;;;;;;;17.80;2.60;;;;;;;;;;5063859;28;20200;-58
2022/10/27 04:24:08;;;;;;;14.35;2.53;;;15.40;99.90;;;;;;5054935;28;20215;-59
2022/10/27 04:26:34;;;;;;;25.98;3.47;;;;;;;;;;5051780;28;20193;-59
2022/10/27 04:29:00;;;;;;;14.80;3.13;;;;;;;;;;5052843;28;20238;-58
2022/10/27 04:31:26;;;;;;;24.70;4.10;;;;;;;;;;5051788;28;20173;-58
2022/10/27 04:33:52;;;;;;;21.95;3.00;;;;;;;;;;5051585;28;20687;-58
2022/10/27 04:36:18;;;;;;;17.05;3.55;;;;;;;;;;5052156;28;20169;-59
2022/10/27 04:38:48;;;;;;;17.45;2.60;;;15.40;99.90;;;;;;5060563;28;20212;-59
2022/10/27 04:41:14;;;;;;;15.80;2.83;;;;;;;;;;5069651;28;20257;-59
2022/10/27 04:43:40;;;;;;;17.65;3.13;;;15.00;99.90;;;;;;5070258;28;20223;-59
2022/10/27 04:46:05;;;;;;;17.52;2.80;;;14.80;99.90;;;;;;5059701;28;20208;-59
2022/10/27 04:48:31;;;;;;;17.05;2.63;;;;;;;;;;5051233;28;20212;-58
2022/10/27 04:50:57;;;;;;;24.20;3.22;;;;;;;;;;5060618;28;20192;-58
2022/10/27 04:53:23;;;;;;;21.83;3.17;;;;;;;;;;5070833;28;20217;-58
2022/10/27 04:55:51;;;;;;;20.15;3.42;;;15.00;99.90;;;;;;5055807;28;20255;-58
2022/10/27 04:58:17;;;;;;;13.52;2.65;;;15.30;99.90;;;;;;5051432;28;20180;-59
2022/10/27 05:00:43;;;;;;;18.85;2.92;;;;;;;;;;5052373;28;20184;-59
2022/10/27 05:03:09;;;;;;;19.13;3.10;;;15.20;99.90;;;;;;5051527;28;20173;-59
2022/10/27 05:05:35;;;;;;;24.23;2.78;;;;;;;;;;5051027;28;20672;-59
2022/10/27 05:08:02;;;;;;;27.77;3.45;;;15.30;99.90;;;;;;5061756;28;20260;-58
2022/10/27 05:10:31;;;;;;;18.98;3.30;;;15.10;99.90;;;;;;5049526;28;20188;-59
2022/10/27 05:12:57;;;;;;;19.55;2.92;;;;;;;;;;5066494;28;20192;-58
2022/10/27 05:15:23;;;;;;;23.52;2.97;;;;;;;;;;5065397;28;20262;-59
2022/10/27 05:17:49;;;;;;;14.75;2.45;;;15.00;99.90;;;;;;5057057;28;20177;-59
2022/10/27 05:20:15;;;;;;;20.40;2.95;;;;;;;;;;5051032;28;20173;-59
2022/10/27 05:22:41;;;;;;;25.13;3.30;;;15.00;99.90;;;;;;5051398;28;20181;-59
2022/10/27 05:25:08;;;;;;;22.70;3.47;;;14.90;99.90;;;;;;5058337;28;20172;-59
2022/10/27 05:27:34;;;;;;;21.40;3.75;;;14.50;99.90;;;;;;5058056;28;20231;-58
2022/10/27 05:30:00;;;;;;;17.40;2.85;;;;;;;;;;5051498;28;20184;-59
2022/10/27 05:32:26;;;;;;;21.00;3.28;;;;;;;;;;5050872;28;20176;-59
2022/10/27 05:34:53;;;;;;;27.02;3.92;;;;;;;;;;5055340;28;20246;-58
2022/10/27 05:37:18;;;;;;;17.50;3.22;;;15.00;99.90;;;;;;5065460;28;20535;-59
2022/10/27 05:39:45;;;;;;;15.45;3.40;;;;;;;;;;5054690;28;20169;-59
2022/10/27 05:42:10;;;;;;;24.58;3.78;;;15.10;99.90;;;;;;5053509;28;20217;-59
2022/10/27 05:44:36;;;;;;;15.18;2.88;;;;;;;;;;5054838;28;20315;-58
2022/10/27 05:47:02;;;;;;;16.13;3.22;;;14.90;99.90;;;;;;5064811;28;20558;-58
2022/10/27 05:49:27;;;;;;;25.27;3.80;;;15.00;99.90;;;;;;5064565;28;20187;-58
2022/10/27 05:51:54;;;;;;;17.90;3.38;;;;;;;;;;5065860;28;20177;-59
2022/10/27 05:54:19;;;;;;;23.35;3.78;;;15.00;99.90;;;;;;5054516;28;20212;-59
2022/10/27 05:56:45;;;;;;;14.45;3.22;;;;;;;;;;5073046;28;20227;-58
2022/10/27 05:59:12;;;;;;;23.58;3.97;;;15.10;99.90;;;;;;5056920;28;20181;-58
2022/10/27 06:01:38;;;;;;;14.10;3.08;;;;;;;;;;5055431;28;20170;-58
2022/10/27 06:04:04;;;;;;;14.85;3.35;;;;;;;;;;5053248;28;20280;-58
2022/10/27 06:06:30;;;;;;;28.77;3.60;;;;;;;;;;5055261;28;20200;-58
2022/10/27 06:08:56;;;;;;;22.88;3.90;;;14.70;99.90;;;;;;5072867;28;20187;-59
2022/10/27 06:11:21;;;;;;;14.80;3.58;;;15.70;99.90;;;;;;5055294;28;20173;-59
2022/10/27 06:13:51;;;;;;;17.65;4.07;;;14.90;99.90;;;;;;5054448;28;20680;-59
2022/10/27 06:16:19;;;;;;;16.73;3.92;;;14.70;99.90;;;;;;5061906;28;20251;-59
2022/10/27 06:18:45;;;;;;;15.77;3.47;;;;;;;;;;5073963;28;20177;-59
2022/10/27 06:21:11;;;;;;;22.38;4.35;;;;;;;;;;5072878;28;20167;-59
2022/10/27 06:23:39;;;;;;;17.60;3.72;;;15.00;99.90;;;;;;5057509;28;20180;-58
2022/10/27 06:26:04;;;;;;;14.63;4.10;;;14.90;99.90;;;;;;5061056;28;20252;-56
2022/10/27 06:28:31;;;;;;;18.45;4.68;;;;;;;;;;5084640;28;20181;-56
2022/10/27 06:30:57;;;;;;;26.42;4.90;;;;;;;;;;5053418;28;20184;-56
2022/10/27 06:33:23;;;;;;;17.95;4.65;;;;;;;;;;5072049;28;20180;-56
2022/10/27 06:35:49;;;;;;;24.92;4.82;;;;;;;;;;5073500;28;20184;-56
2022/10/27 06:38:15;;;;;;;17.80;5.70;;;15.00;99.90;;;;;;5054307;28;20177;-56
2022/10/27 06:40:45;;;;;;;20.38;5.07;;;15.10;99.90;;;;;;5053593;28;20248;-55
2022/10/27 06:43:11;;;;;;;22.52;5.97;;;15.20;99.90;;;;;;5056642;28;20235;-56
2022/10/27 06:45:38;;;;;;;19.88;5.72;;;15.30;99.90;;;;;;5052860;28;20683;-56
2022/10/27 06:48:05;;;;;;;22.65;5.50;;;;;;;;;;5060174;28;20181;-57
2022/10/27 06:50:32;;;;;;;21.15;6.00;;;15.20;99.90;;;;;;5069211;28;20176;-58
2022/10/27 06:52:58;;;;;;;18.88;5.50;;;15.10;99.90;;;;;;5071451;28;20176;-57
2022/10/27 06:55:24;;;;;;;23.80;5.97;;;15.00;99.90;;;;;;5068388;28;20346;-57
2022/10/27 06:57:50;;;;;;;20.63;6.47;;;;;;;;;;5054196;28;20190;-57
2022/10/27 07:00:16;;;;;;;23.67;6.40;;;15.30;99.90;;;;;;5051969;28;20675;-57
2022/10/27 07:02:42;;;;;;;23.35;6.45;;;15.10;99.90;;;;;;5056072;28;20181;-57
2022/10/27 07:05:08;;;;;;;25.38;6.85;;;15.00;99.90;;;;;;5070555;28;20670;-57
2022/10/27 07:07:35;;;;;;;18.15;7.45;;;15.00;99.90;;;;;;5060549;28;20189;-57
2022/10/27 07:10:01;;;;;;;25.08;7.15;;;;;;;;;;5051566;28;20227;-57
2022/10/27 07:12:27;;;;;;;20.15;7.38;;;15.10;99.90;;;;;;5050935;28;20229;-57
2022/10/27 07:14:52;;;;;;;23.00;7.60;;;15.00;99.90;;;;;;5052596;28;20895;-57
2022/10/27 07:17:19;;;;;;;19.65;7.55;;;15.20;99.90;;;;;;5056208;28;20184;-57
2022/10/27 07:19:48;;;;;;;28.77;8.07;;;15.30;99.90;;;;;;5072520;28;20214;-57
2022/10/27 07:22:14;;;;;;;23.60;8.57;;;;;;;;;;5072713;28;20251;-57
2022/10/27 07:24:40;;;;;;;17.90;8.82;;;15.40;99.90;;;;;;5061751;28;20479;-57
2022/10/27 07:27:06;;;;;;;26.77;9.32;;;;;;;;;;5068279;28;20656;-57
2022/10/27 07:29:31;;;;;;;20.33;8.98;;;15.30;99.90;;;;;;5052421;28;20174;-58
2022/10/27 07:31:57;;;;;;;23.83;9.00;;;;;;;;;;5052640;28;20177;-58
2022/10/27 07:34:23;;;;;;;19.13;9.80;;;;;;;;;;5052654;28;20201;-58
2022/10/27 07:36:49;;;;;;;17.63;9.25;;;15.40;99.90;;;;;;5060931;28;20169;-58
2022/10/27 07:39:15;;;;;;;20.95;9.50;;;;;;;;;;5052125;28;20246;-58
2022/10/27 07:41:41;;;;;;;21.20;9.55;;;;;;;;;;5052000;28;20692;-58
2022/10/27 07:44:07;;;;;;;20.08;9.18;;;;;;;;;;5052855;28;20601;-58
2022/10/27 07:46:33;;;;;;;21.48;9.13;;;15.40;99.90;;;;;;5051956;28;20161;-58
2022/10/27 07:48:59;;;;;;;25.10;9.00;;;;;;;;;;5051993;28;20659;-57
2022/10/27 07:51:25;;;;;;;18.50;8.93;;;;;;;;;;5052232;28;20181;-59
2022/10/27 07:53:51;;;;;;;20.77;8.38;;;;;;;;;;5053004;28;20691;-59
2022/10/27 07:56:17;;;;;;;25.38;9.77;;;15.50;99.90;;;;;;5050649;28;20327;-59
2022/10/27 07:58:43;;;;;;;20.40;9.55;;;;;;;;;;5070764;28;20229;-58
2022/10/27 08:01:09;;;;;;;22.00;8.52;;;;;;;;;;5069939;28;20225;-58
2022/10/27 08:03:35;;;;;;;24.60;9.73;;;15.70;99.90;;;;;;5064282;28;20695;-58
2022/10/27 08:06:04;;;;;;;23.50;9.00;;;15.40;99.90;;;;;;5070110;28;20267;-58
2022/10/27 08:08:30;;;;;;;24.33;8.40;;;14.40;99.90;;;;;;5072023;28;20547;-59
2022/10/27 08:10:57;;;;;;;20.73;7.57;;;;;;;;;;5071276;28;20263;-59
2022/10/27 08:13:23;;;;;;;19.40;5.93;;;;;;;;;;5071861;28;20230;-59
2022/10/27 08:15:49;;;;;;;17.65;6.57;;;16.00;99.90;;;;;;5071707;28;20173;-59
2022/10/27 08:18:15;;;;;;;17.35;6.10;;;;;;;;;;5071913;28;20526;-60
2022/10/27 08:20:46;;;;;;;23.75;5.82;;;15.60;99.90;;;;;;5052885;28;20169;-57
2022/10/27 08:23:17;;;;;;;11.52;5.20;;;16.10;99.90;;;;;;5061170;28;20289;-59
2022/10/27 08:25:43;;;;;;;20.40;5.75;;;15.80;99.90;;;;;;5051824;28;20173;-58
2022/10/27 08:28:13;;;;;;;19.67;5.10;;;;;;;;;;5051506;28;20180;-59
2022/10/27 08:30:39;;;;;;;15.20;4.70;;;16.00;99.90;;;;;;5051298;28;20184;-56
2022/10/27 08:33:05;;;;;;;16.55;4.90;;;15.80;99.90;;;;;;5071972;28;20254;-57
2022/10/27 08:35:32;;;;;;;15.20;4.82;;;15.90;99.90;;;;;;5050380;28;20683;-59
2022/10/27 08:38:01;;;;;;;18.63;4.30;;;16.00;99.90;;;;;;5069559;28;20259;-58
2022/10/27 08:40:33;;;;;;;12.07;3.58;;;16.20;99.90;;;;;;5070989;28;20242;-57
2022/10/27 08:43:20;;;;;;;12.73;3.40;;;16.10;99.90;;;;;;5065625;28;20709;-57
2022/10/27 08:45:53;;;;;;;14.55;3.28;;;16.10;99.90;;;;;;5051247;28;20252;-57
2022/10/27 08:48:24;;;;;;;16.80;3.60;;;16.00;99.90;;;;;;5055667;28;20206;-56
2022/10/27 08:50:50;;;;;;;12.52;3.03;;;16.00;99.90;;;;;;5051175;28;20582;-54
2022/10/27 08:53:23;;;;;;;10.88;3.25;;;16.10;99.90;;;;;;5051169;28;20188;-55
2022/10/27 08:55:50;;;;;;;13.30;2.45;;;;;;;;;;5053231;28;20258;-54
2022/10/27 08:58:17;;;;;;;13.10;2.92;;;;;;;;;;5047189;28;20251;-54
2022/10/27 09:00:53;;;;;;;13.40;2.38;;;16.10;99.90;;;;;;5067672;28;20184;-55
2022/10/27 09:03:46;;;;;;;15.88;2.65;;;16.10;99.90;;;;;;5060412;28;20535;-55
2022/10/27 09:06:22;;;;;;;9.57;2.35;;;16.20;99.90;;;;;;5066214;28;20215;-57
2022/10/27 09:08:59;;;;;;;15.52;2.35;;;16.20;99.90;;;;;;5055236;28;20169;-55
2022/10/27 09:11:43;;;;;;;15.60;2.78;;;16.20;99.90;;;;;;5069027;28;20531;-55
2022/10/27 09:14:09;;;;;;;16.65;2.35;;;;;;;;;;5051824;28;20207;-58
2022/10/27 09:16:41;;;;;;;14.00;2.38;;;16.30;99.90;;;;;;5050632;28;20536;-58
2022/10/27 09:19:12;;;;;;;10.68;2.33;;;;;;;;;;5051016;28;20636;-58
2022/10/27 09:21:40;;;;;;;12.27;2.30;;;16.50;99.90;;;;;;5070538;28;20172;-58
2022/10/27 09:24:13;;;;;;;7.95;2.08;;;16.30;99.90;;;;;;5068673;28;20176;-58
2022/10/27 09:26:41;;;;;;;16.00;3.38;;;16.20;99.90;;;;;;5070368;28;20248;-57
2022/10/27 09:29:14;;;;;;;14.02;2.75;;;;;;;;;;5058556;28;20197;-58
2022/10/27 09:31:46;;;;;;;14.55;3.05;;;16.30;99.90;;;;;;5050718;28;20169;-58
2022/10/27 09:34:18;;;;;;;15.02;2.55;;;;;;;;;;5051602;28;20688;-58
2022/10/27 09:36:44;;;;;;;8.98;2.08;;;16.20;99.90;;;;;;5058932;28;20539;-58
2022/10/27 09:39:10;;;;;;;11.27;2.22;;;;;;;;;;5070853;28;20176;-58
2022/10/27 09:41:36;;;;;;;9.32;2.70;;;16.40;99.90;;;;;;5068033;28;20293;-58
2022/10/27 09:44:03;;;;;;;11.70;2.67;;;16.50;99.90;;;;;;5055329;28;20188;-57
2022/10/27 09:46:30;;;;;;;15.68;2.95;;;16.60;99.90;;;;;;5059731;28;20212;-57
2022/10/27 09:49:04;;;;;;;13.32;2.20;;;16.50;99.90;;;;;;5057347;28;20651;-57
2022/10/27 09:51:41;;;;;;;14.35;3.03;;;16.50;99.90;;;;;;5054902;28;20196;-57
2022/10/27 09:54:28;;;;;;;16.17;3.38;;;16.60;99.90;;;;;;5068091;28;20212;-58
2022/10/27 09:56:54;;;;;;;12.32;2.25;;;;;;;;;;5069056;28;20185;-57
2022/10/27 09:59:21;;;;;;;12.50;3.22;;;17.00;99.90;;;;;;5069434;28;20263;-57
2022/10/27 10:01:56;;;;;;;14.00;2.80;;;16.80;99.90;;;;;;5069237;28;20173;-58
2022/10/27 10:04:24;;;;;;;13.70;2.47;;;16.70;99.90;;;;;;5063695;28;20191;-58
2022/10/27 10:06:59;;;;;;;13.45;2.95;;;16.80;99.90;;;;;;5058427;28;20165;-58
2022/10/27 10:09:32;;;;;;;9.20;2.38;;;16.90;99.90;;;;;;5064067;28;20184;-58
2022/10/27 10:12:21;;;;;;;9.25;2.75;;;17.20;99.90;;;;;;5057702;28;20176;-58
2022/10/27 10:14:47;;;;;;;12.25;3.45;;;;;;;;;;5066593;28;20212;-58
2022/10/27 10:17:22;;;;;;;10.10;2.60;;;17.00;99.90;;;;;;5069542;28;20268;-57
2022/10/27 10:19:49;;;;;;;11.63;2.20;;;17.20;99.90;;;;;;5067983;28;20259;-59
2022/10/27 10:22:41;;;;;;;15.27;2.55;;;17.50;99.90;;;;;;5052808;28;20173;-57
2022/10/27 10:25:19;;;;;;;13.50;2.10;;;17.50;99.90;;;;;;5053149;28;20177;-57
2022/10/27 10:27:54;;;;;;;12.80;2.50;;;18.00;99.90;;;;;;5053361;28;20238;-57
2022/10/27 10:30:20;;;;;;;14.52;2.30;;;;;;;;;;5057836;28;20642;-57
2022/10/27 10:32:53;;;;;;;16.08;2.28;;;17.70;99.90;;;;;;5055646;28;20269;-57
2022/10/27 10:35:45;;;;;;;21.73;2.47;;;18.50;99.90;;;;;;5068715;28;20204;-58
2022/10/27 10:38:23;;;;;;;9.93;1.88;;;18.30;99.90;;;;;;5052924;28;20181;-58
2022/10/27 10:41:05;;;;;;;18.85;2.55;;;18.00;99.90;;;;;;5069481;28;20204;-57
2022/10/27 10:43:31;;;;;;;12.20;2.47;;;18.20;99.90;;;;;;5059408;28;20239;-55
2022/10/27 10:45:57;;;;;;;11.82;2.30;;;17.80;99.90;;;;;;5056450;28;20291;-56
2022/10/27 10:48:26;;;;;;;10.32;2.10;;;18.70;99.90;;;;;;5072032;28;20735;-56
2022/10/27 10:50:52;;;;;;;11.32;2.25;;;19.00;99.90;;;;;;5054573;28;20180;-55
2022/10/27 10:53:30;;;;;;;14.18;1.98;;;19.60;99.90;;;;;;5065990;28;20188;-55
2022/10/27 10:56:00;;;;;;;13.98;2.08;;;20.70;99.90;;;;;;5053057;28;20268;-55
2022/10/27 10:58:28;;;;;;;8.00;1.83;;;20.90;99.90;;;;;;5051929;28;20264;-55
2022/10/27 11:01:00;;;;;;;13.07;1.80;;;22.80;99.90;;;;;;5053032;28;20177;-55
2022/10/27 11:03:42;;;;;;;12.27;2.08;;;21.70;99.90;;;;;;5052982;28;20184;-55
2022/10/27 11:06:19;;;;;;;13.73;1.73;;;21.30;99.90;;;;;;5052493;28;20181;-55
2022/10/27 11:08:59;;;;;;;7.68;2.00;;;21.10;99.90;;;;;;5053169;28;20214;-55
2022/10/27 11:11:30;;;;;;;12.68;1.63;;;22.50;99.90;;;;;;5055445;28;20173;-55
2022/10/27 11:13:59;;;;;;;12.20;1.75;;;21.50;99.90;;;;;;5052654;28;20672;-55
2022/10/27 11:16:26;;;;;;;7.90;1.50;;;21.20;99.90;;;;;;5064900;28;20268;-55
2022/10/27 11:19:00;;;;;;;8.60;1.20;;;21.10;99.90;;;;;;5052581;28;20169;-55
2022/10/27 11:21:37;;;;;;;10.88;1.58;;;21.60;99.90;;;;;;5062942;28;20192;-55
2022/10/27 11:24:20;;;;;;;11.43;2.08;;;23.90;99.90;;;;;;5066075;28;20793;-55
2022/10/27 11:27:02;;;;;;;8.05;1.48;;;23.50;99.90;;;;;;5067438;28;20192;-55
2022/10/27 11:29:39;;;;;;;10.65;1.70;;;22.40;99.90;;;;;;5065558;28;20198;-55
2022/10/27 11:32:32;;;;;;;10.25;1.38;;;21.00;99.90;;;;;;5083049;28;20234;-55
2022/10/27 11:35:06;;;;;;;8.32;1.38;;;20.50;99.90;;;;;;5052519;28;20209;-55
2022/10/27 11:37:57;;;;;;;7.88;1.45;;;20.30;99.90;;;;;;5062953;28;20187;-55
2022/10/27 11:40:41;;;;;;;11.75;1.65;;;20.40;99.90;;;;;;5070692;28;20172;-55
2022/10/27 11:43:12;;;;;;;8.02;1.42;;;;;;;;;;5058011;28;20192;-55
2022/10/27 11:46:04;;;;;;;12.82;2.03;;;21.40;99.90;;;;;;5067337;28;20252;-55
2022/10/27 11:49:01;;;;;;;9.38;1.85;;;23.60;99.90;;;;;;5060302;28;20197;-55
2022/10/27 11:51:36;;;;;;;6.20;1.30;;;24.90;99.90;;;;;;5071888;28;20168;-55
2022/10/27 11:54:02;;;;;;;9.07;1.70;;;24.60;99.90;;;;;;5050855;28;20201;-56
2022/10/27 11:57:06;;;;;;;10.73;1.63;;;22.70;99.90;;;;;;5052845;28;20181;-55
2022/10/27 11:59:46;;;;;;;8.25;1.20;;;24.10;99.90;;;;;;5042888;28;20176;-56
2022/10/27 12:02:44;;;;;;;9.85;2.10;;;22.90;99.90;;;;;;5051530;28;20185;-55
2022/10/27 12:05:16;;;;;;;9.98;2.03;;;21.50;99.90;;;;;;5051416;28;20211;-55
2022/10/27 12:07:49;;;;;;;5.88;1.00;;;20.90;99.90;;;;;;5070486;28;20177;-55
2022/10/27 12:10:26;;;;;;;13.05;2.08;;;20.70;99.90;;;;;;5051671;28;20177;-55
2022/10/27 12:13:09;;;;;;;6.90;1.13;;;20.10;99.90;;;;;;5066968;28;20176;-55
2022/10/27 12:15:52;;;;;;;9.27;2.17;;;19.40;99.90;;;;;;5052675;28;20217;-55
2022/10/27 12:18:32;;;;;;;10.38;1.55;;;19.70;99.90;;;;;;5051723;28;20269;-55
2022/10/27 12:21:17;;;;;;;10.13;1.67;;;20.40;99.90;;;;;;5064719;28;20180;-55
2022/10/27 12:23:52;;;;;;;8.73;1.88;;;21.10;99.90;;;;;;5070990;28;20223;-55
2022/10/27 12:26:36;;;;;;;9.88;1.52;;;20.80;99.90;;;;;;5051605;28;20230;-55
2022/10/27 12:29:04;;;;;;;15.00;2.20;;;20.50;99.90;;;;;;5070791;28;20171;-55
2022/10/27 12:31:34;;;;;;;11.60;1.83;;;20.20;99.90;;;;;;5053498;28;20173;-55
2022/10/27 12:34:02;;;;;;;11.38;1.73;;;20.10;99.90;;;;;;5065269;28;20212;-56
2022/10/27 12:36:55;;;;;;;12.07;1.60;;;20.00;99.90;;;;;;5063875;28;20726;-55
2022/10/27 12:39:22;;;;;;;14.73;2.10;;;;;;;;;;5079872;28;20183;-56
2022/10/27 12:41:50;;;;;;;14.45;1.70;;;19.40;99.90;;;;;;5050259;28;20791;-55
2022/10/27 12:44:51;;;;;;;15.88;2.05;;;19.10;99.90;;;;;;5059844;28;20272;-55
2022/10/27 12:47:50;;;;;;;13.25;1.73;;;18.90;99.90;;;;;;5051239;28;20663;-55
2022/10/27 12:50:27;;;;;;;15.85;2.85;;;19.00;99.90;;;;;;5051167;28;20176;-55
2022/10/27 12:53:00;;;;;;;18.65;2.45;;;19.30;99.90;;;;;;5060513;28;20172;-56
2022/10/27 12:55:51;;;;;;;16.88;2.75;;;19.30;99.90;;;;;;5070315;28;20235;-55
2022/10/27 12:58:47;;;;;;;16.63;2.58;;;19.40;99.90;;;;;;5069776;28;20181;-55
2022/10/27 13:01:25;;;;;;;16.88;2.03;;;19.20;99.90;;;;;;5054993;28;20676;-55
2022/10/27 13:04:21;;;;;;;15.23;2.50;;;20.60;99.90;;;;;;5051222;28;20177;-55
2022/10/27 13:06:59;;;;;;;16.80;2.45;;;22.00;99.90;;;;;;5050375;28;20185;-55
2022/10/27 13:09:33;;;;;;;16.88;2.17;;;24.30;99.90;;;;;;5050788;28;20232;-55
2022/10/27 13:11:59;;;;;;;13.98;2.35;;;25.30;99.90;;;;;;5050635;28;20195;-56
2022/10/27 13:14:33;;;;;;;15.65;2.35;;;26.90;99.90;;;;;;5054566;28;20676;-55
2022/10/27 13:17:23;;;;;;;18.60;2.55;;;25.40;99.90;;;;;;5050917;28;20172;-56
2022/10/27 13:19:55;;;;;;;9.50;1.85;;;;;;;;;;5050226;28;20173;-56
2022/10/27 13:22:21;;;;;;;13.85;2.65;;;;;;;;;;5050590;28;20185;-56
2022/10/27 13:25:10;;;;;;;22.67;3.13;;;22.70;99.90;;;;;;5050472;28;20172;-54
2022/10/27 13:27:38;;;;;;;19.30;2.80;;;22.20;99.90;;;;;;5062780;28;20192;-55
2022/10/27 13:30:14;;;;;;;13.20;2.00;;;23.60;99.90;;;;;;5066222;28;20461;-55